Strona główna
METAR-TAF:

METAR-TAF

Lotnisko :

Port lotniczy Jersey

Jersey,

Szerokość geograficzna: 49-13N, Długość geograficzna: 002-12W, wysokość: 84 m

Aktualna obserwacja pogody

Raport powstał 35 minut temu, godzina 19:50 UTC
Wiatr 6 kt od zachód
Temperatura 16°C
Wilgotność 94%
Ciśnienie 1014 hPa
Widzialność 10 km lub więcej
Mało chmury na wysokości 600 ft

METAR: EGJJ 181950Z 27006KT 9999 FEW006 16/15 Q1014

czas: 21:25 (20:25 UTC)

Prognoza

Raport powstał 3 godziny i 22 minut temu, godzina 17:03 UTC
Prognoza ważna od 18 godzina 18 UTC do 19 godzina 03 UTC
Wiatr 13 kt od zachód
Widzialność 10 km lub więcej
Mało chmury na wysokości 1000 ft
Stopniowe zmiany
od 19 godzina 02 UTC do 19 godzina 03 UTC
Wiatr 11 kt od zachodnio-południowy zachód

TAF: EGJJ 181703Z 1818/1903 27013KT 9999 FEW010 BECMG 1902/1903 24011KT

Obserwacja i prognoza pogody dla ponad 4000 lotnisk (raport METAR i TAF).

Dostępne stacje oznaczono żółtymi i czerwonymi punktami na mapie.

Najedź kursorem aby zobaczyć nazwę stacji.

Kliknij aby zobaczyć obserwacje i prognozy pogody.

Aby zmienić mapę: kliknij na zielony przycisk z czarnym krzyżykiem, aby powiększyć; na zielony przycisk z myślnikiem, aby pomniejszyć; na zielone strzałki, aby przejść do map sąsiednich.


METAR-TAF: